createdAt,value
2022-11-29T00:01:30.475Z,101107.09
2022-11-29T00:05:42.107Z,101105.06
2022-11-29T00:09:53.639Z,101099.06
2022-11-29T00:14:06.791Z,101111.03
2022-11-29T00:18:18.329Z,101100.91
2022-11-29T00:22:30.146Z,101099.09
2022-11-29T00:26:41.736Z,101103.19
2022-11-29T00:30:53.360Z,101104.00
2022-11-29T00:35:09.647Z,101112.69
2022-11-29T00:39:21.640Z,101123.22
2022-11-29T00:43:33.726Z,101125.06
2022-11-29T00:47:45.249Z,101112.91
2022-11-29T00:51:56.776Z,101122.41
2022-11-29T00:56:08.641Z,101115.16
2022-11-29T01:00:20.501Z,101120.53
2022-11-29T01:04:32.115Z,101118.06
2022-11-29T01:08:45.655Z,101117.84
2022-11-29T01:12:57.257Z,101114.53
2022-11-29T01:17:08.825Z,101131.66
2022-11-29T01:21:22.816Z,101132.50
2022-11-29T01:25:34.348Z,101136.19
2022-11-29T01:29:45.927Z,101139.72
2022-11-29T01:34:00.146Z,101138.06
2022-11-29T01:38:11.680Z,101140.13
2022-11-29T01:42:23.425Z,101150.03
2022-11-29T01:46:38.399Z,101146.94
2022-11-29T01:50:50.835Z,101150.66
2022-11-29T01:55:05.435Z,101163.84
2022-11-29T01:59:21.893Z,101162.19
2022-11-29T02:03:33.537Z,101167.97
2022-11-29T02:07:50.001Z,101155.19
2022-11-29T02:12:19.852Z,101168.59
2022-11-29T02:16:40.861Z,101170.47
2022-11-29T02:21:47.210Z,101170.47
2022-11-29T02:26:35.612Z,101169.22
2022-11-29T02:31:05.322Z,101171.06
2022-11-29T02:35:29.129Z,101164.69
2022-11-29T02:40:06.970Z,101172.50
2022-11-29T02:44:21.377Z,101164.06
2022-11-29T02:48:46.308Z,101177.88
2022-11-29T02:53:22.838Z,101173.13
2022-11-29T02:57:58.488Z,101178.28
2022-11-29T03:02:40.370Z,101177.03
2022-11-29T03:07:25.455Z,101183.03
2022-11-29T03:12:06.928Z,101180.34
2022-11-29T03:16:44.772Z,101176.41
2022-11-29T03:21:05.402Z,101197.47
2022-11-29T03:25:32.889Z,101192.94
2022-11-29T03:29:55.618Z,101198.72
2022-11-29T03:34:44.095Z,101204.06
2022-11-29T03:39:00.875Z,101205.94
2022-11-29T03:43:26.793Z,101214.19
2022-11-29T03:47:57.967Z,101212.94
2022-11-29T03:52:26.695Z,101212.13
2022-11-29T03:56:40.537Z,101222.41
2022-11-29T04:01:13.845Z,101226.56
2022-11-29T04:05:41.020Z,101233.56
2022-11-29T04:10:25.514Z,101234.81
2022-11-29T04:15:23.468Z,101249.66
2022-11-29T04:19:53.967Z,101249.06
2022-11-29T04:24:34.872Z,101258.72
2022-11-29T04:28:49.408Z,101259.75
2022-11-29T04:33:21.434Z,101248.81
2022-11-29T04:37:57.818Z,101258.09
2022-11-29T04:42:18.678Z,101251.69
2022-11-29T04:46:56.461Z,101257.09
2022-11-29T04:51:29.851Z,101262.44
2022-11-29T04:56:11.192Z,101262.84
2022-11-29T05:00:24.321Z,101267.16
2022-11-29T05:04:53.268Z,101275.22
2022-11-29T05:09:17.355Z,101266.13
2022-11-29T05:13:45.339Z,101282.00
2022-11-29T05:18:07.525Z,101289.84
2022-11-29T05:22:32.032Z,101294.59
2022-11-29T05:27:11.001Z,101302.00
2022-11-29T05:31:52.839Z,101316.03
2022-11-29T05:36:42.055Z,101314.38
2022-11-29T05:41:01.627Z,101316.03
2022-11-29T05:45:19.298Z,101309.66
2022-11-29T05:50:03.196Z,101325.53
2022-11-29T05:54:19.849Z,101333.78
2022-11-29T05:58:44.700Z,101326.38
2022-11-29T06:03:19.743Z,101334.81
2022-11-29T06:07:39.665Z,101323.44
2022-11-29T06:12:14.866Z,101335.44
2022-11-29T06:17:05.942Z,101345.53
2022-11-29T06:21:39.120Z,101346.38
2022-11-29T06:26:18.002Z,101359.97
2022-11-29T06:30:53.573Z,101370.69
2022-11-29T06:35:13.241Z,101365.91
2022-11-29T06:39:25.067Z,101386.13
2022-11-29T06:43:36.853Z,101380.13
2022-11-29T06:48:28.095Z,101395.00
2022-11-29T06:52:58.456Z,101401.59
2022-11-29T06:57:12.997Z,101411.69
2022-11-29T07:01:41.993Z,101395.78
2022-11-29T07:05:53.868Z,101416.78
2022-11-29T07:10:10.577Z,101411.25
2022-11-29T07:14:25.497Z,101411.25
2022-11-29T07:19:14.428Z,101423.47
2022-11-29T07:23:43.721Z,101429.66
2022-11-29T07:28:26.466Z,101431.31
2022-11-29T07:32:43.641Z,101439.31
2022-11-29T07:37:04.779Z,101438.66
2022-11-29T07:41:32.223Z,101451.25
2022-11-29T07:45:43.885Z,101462.16
2022-11-29T07:49:55.434Z,101465.47
2022-11-29T07:54:07.164Z,101461.94
2022-11-29T07:58:19.059Z,101469.75
2022-11-29T08:02:32.331Z,101481.53
2022-11-29T08:06:43.959Z,101482.13
2022-11-29T08:10:55.577Z,101481.53
2022-11-29T08:15:08.738Z,101478.03
2022-11-29T08:19:20.335Z,101477.63
2022-11-29T08:23:31.903Z,101484.44
2022-11-29T08:27:43.529Z,101489.41
2022-11-29T08:31:55.331Z,101486.94
2022-11-29T08:36:15.994Z,101486.53
2022-11-29T08:40:27.618Z,101494.84
2022-11-29T08:44:39.209Z,101501.03
2022-11-29T08:48:50.746Z,101494.66
2022-11-29T08:53:43.700Z,101503.97
2022-11-29T08:58:01.866Z,101509.78
2022-11-29T09:02:13.446Z,101497.53
2022-11-29T09:06:26.500Z,101510.38
2022-11-29T09:10:42.187Z,101526.72
2022-11-29T09:14:53.755Z,101524.22
2022-11-29T09:19:05.768Z,101530.59
2022-11-29T09:23:17.322Z,101544.00
2022-11-29T09:27:28.958Z,101545.63
2022-11-29T09:31:40.593Z,101549.13
2022-11-29T09:35:58.084Z,101549.00
2022-11-29T09:40:18.175Z,101561.78
2022-11-29T09:44:48.614Z,101569.88
2022-11-29T09:49:09.354Z,101573.66
2022-11-29T09:53:48.053Z,101572.00
2022-11-29T09:58:01.527Z,101567.25
2022-11-29T10:02:22.464Z,101572.25
2022-11-29T10:06:40.791Z,101580.31
2022-11-29T10:11:36.088Z,101582.22
2022-11-29T10:15:53.247Z,101569.19
2022-11-29T10:20:17.111Z,101570.66
2022-11-29T10:24:29.839Z,101565.09
2022-11-29T10:28:48.570Z,101559.34
2022-11-29T10:33:00.674Z,101560.75
2022-11-29T10:37:22.445Z,101564.13
2022-11-29T10:41:35.751Z,101567.69
2022-11-29T10:45:56.127Z,101568.41
2022-11-29T10:50:13.308Z,101577.28
2022-11-29T10:54:38.410Z,101578.75
2022-11-29T10:58:56.389Z,101566.16
2022-11-29T11:03:33.940Z,101556.41
2022-11-29T11:07:47.419Z,101566.03
2022-11-29T11:12:02.872Z,101577.59
2022-11-29T11:16:24.268Z,101580.56
2022-11-29T11:20:40.344Z,101572.75
2022-11-29T11:25:01.128Z,101578.13
2022-11-29T11:29:22.457Z,101571.75
2022-11-29T11:33:42.364Z,101589.34
2022-11-29T11:37:56.813Z,101565.13
2022-11-29T11:42:33.628Z,101581.91
2022-11-29T11:46:50.267Z,101583.81
2022-11-29T11:51:03.418Z,101580.09
2022-11-29T11:55:21.201Z,101597.50
2022-11-29T11:59:33.948Z,101595.03
2022-11-29T12:03:52.830Z,101564.19
2022-11-29T12:08:08.124Z,101598.94
2022-11-29T12:12:26.206Z,101598.31
2022-11-29T12:16:39.202Z,101617.38
2022-11-29T12:21:17.556Z,101620.09
2022-11-29T12:25:35.979Z,101610.97
2022-11-29T12:29:47.569Z,101599.16
2022-11-29T12:34:10.230Z,101609.50
2022-11-29T12:38:49.561Z,101623.59
2022-11-29T12:43:23.040Z,101608.47
2022-11-29T12:47:40.992Z,101618.00
2022-11-29T12:52:03.955Z,101627.53
2022-11-29T12:56:34.247Z,101634.34
2022-11-29T13:00:52.466Z,101634.09
2022-11-29T13:05:19.086Z,101623.97
2022-11-29T13:10:14.967Z,101647.75
2022-11-29T13:14:43.889Z,101658.69
2022-11-29T13:19:03.149Z,101661.31
2022-11-29T13:24:07.870Z,101668.34
2022-11-29T13:28:39.573Z,101656.34
2022-11-29T13:32:59.041Z,101648.44
2022-11-29T13:37:53.561Z,101654.53
2022-11-29T13:42:25.087Z,101667.66
2022-11-29T13:47:08.562Z,101662.03
2022-11-29T13:51:30.566Z,101664.34
2022-11-29T13:55:59.810Z,101661.75
2022-11-29T14:00:39.785Z,101653.75
2022-11-29T14:04:52.370Z,101664.94
2022-11-29T14:09:21.054Z,101667.38
2022-11-29T14:13:49.967Z,101671.09
2022-11-29T14:18:07.251Z,101666.94
2022-11-29T14:22:22.155Z,101673.53
2022-11-29T14:26:33.819Z,101674.34
2022-11-29T14:30:51.047Z,101671.06
2022-11-29T14:35:11.806Z,101677.13
2022-11-29T14:39:33.166Z,101683.59
2022-11-29T14:43:44.837Z,101681.75
2022-11-29T14:47:57.402Z,101676.31
2022-11-29T14:52:21.575Z,101673.81
2022-11-29T14:56:35.031Z,101695.75
2022-11-29T15:00:49.546Z,101679.72
2022-11-29T15:05:16.744Z,101682.38
2022-11-29T15:09:30.075Z,101685.81
2022-11-29T15:13:55.038Z,101682.88
2022-11-29T15:18:19.994Z,101685.03
2022-11-29T15:22:46.780Z,101701.13
2022-11-29T15:27:01.064Z,101692.19
2022-11-29T15:31:16.214Z,101695.88
2022-11-29T15:35:28.544Z,101702.72
2022-11-29T15:39:40.251Z,101702.53
2022-11-29T15:43:55.897Z,101694.66
2022-11-29T15:48:24.096Z,101711.59
2022-11-29T15:52:38.417Z,101698.72
2022-11-29T15:57:00.642Z,101695.41
2022-11-29T16:01:20.019Z,101709.00
2022-11-29T16:05:35.104Z,101692.44
2022-11-29T16:09:56.943Z,101700.56
2022-11-29T16:14:11.420Z,101705.47
2022-11-29T16:18:25.483Z,101722.78
2022-11-29T16:22:37.092Z,101724.91
2022-11-29T16:26:50.930Z,101721.38
2022-11-29T16:31:04.779Z,101722.59
2022-11-29T16:35:22.125Z,101719.28
2022-11-29T16:39:36.983Z,101709.56
2022-11-29T16:43:55.195Z,101719.53
2022-11-29T16:48:21.917Z,101723.06
2022-11-29T16:52:34.415Z,101726.31
2022-11-29T16:56:45.988Z,101725.47
2022-11-29T17:00:57.552Z,101735.56
2022-11-29T17:05:09.128Z,101734.72
2022-11-29T17:09:27.120Z,101744.25
2022-11-29T17:13:38.837Z,101741.13
2022-11-29T17:17:50.427Z,101739.91
2022-11-29T17:22:02.110Z,101736.34
2022-11-29T17:26:15.436Z,101734.88
2022-11-29T17:30:28.870Z,101733.03
2022-11-29T17:34:40.441Z,101734.88
2022-11-29T17:38:52.194Z,101743.56
2022-11-29T17:43:03.766Z,101745.16
2022-11-29T17:47:15.353Z,101747.63
2022-11-29T17:56:09.951Z,101745.34
2022-11-29T18:00:21.556Z,101746.16
2022-11-29T18:04:33.150Z,101755.88
2022-11-29T18:08:47.710Z,101759.19
2022-11-29T18:12:59.273Z,101765.63
2022-11-29T18:17:10.945Z,101772.78
2022-11-29T18:21:22.830Z,101769.94
2022-11-29T18:25:39.121Z,101770.38
2022-11-29T18:29:51.507Z,101775.34
2022-11-29T18:34:06.983Z,101778.25
2022-11-29T18:38:18.833Z,101774.91
2022-11-29T18:42:30.432Z,101781.72
2022-11-29T18:46:44.040Z,101786.91
2022-11-29T18:50:55.606Z,101790.03
2022-11-29T18:55:07.555Z,101783.38
2022-11-29T18:59:19.169Z,101786.91
2022-11-29T19:03:34.106Z,101791.88
2022-11-29T19:07:45.733Z,101790.03
2022-11-29T19:11:57.326Z,101797.44
2022-11-29T19:16:13.407Z,101791.25
2022-11-29T19:20:25.582Z,101782.13
2022-11-29T19:24:37.069Z,101795.13
2022-11-29T19:28:48.683Z,101794.53
2022-11-29T19:33:00.246Z,101804.41
2022-11-29T19:37:11.896Z,101810.22
2022-11-29T19:41:26.190Z,101807.94
2022-11-29T19:45:40.941Z,101811.44
2022-11-29T19:49:52.885Z,101812.28
2022-11-29T19:54:07.095Z,101806.28
2022-11-29T19:58:20.820Z,101805.06
2022-11-29T20:02:32.548Z,101812.28
2022-11-29T20:06:44.527Z,101814.56
2022-11-29T20:10:56.433Z,101815.56
2022-11-29T20:15:08.328Z,101818.06
2022-11-29T20:19:21.580Z,101815.97
2022-11-29T20:23:33.658Z,101830.00
2022-11-29T20:27:45.203Z,101816.03
2022-11-29T20:31:56.848Z,101818.34
2022-11-29T20:36:25.771Z,101825.19
2022-11-29T20:40:50.967Z,101823.16
2022-11-29T20:45:11.261Z,101832.41
2022-11-29T20:49:23.006Z,101834.91
2022-11-29T20:53:40.152Z,101843.41
2022-11-29T20:57:51.723Z,101841.09
2022-11-29T21:02:03.649Z,101842.31
2022-11-29T21:06:15.370Z,101846.38
2022-11-29T21:10:26.956Z,101849.50
2022-11-29T21:14:38.844Z,101846.75
2022-11-29T21:18:58.898Z,101855.72
2022-11-29T21:23:27.046Z,101856.91
2022-11-29T21:27:38.843Z,101852.19
2022-11-29T21:31:53.826Z,101867.91
2022-11-29T21:36:06.192Z,101864.97
2022-11-29T21:40:17.813Z,101862.94
2022-11-29T21:44:29.367Z,101860.44
2022-11-29T21:48:42.432Z,101864.78
2022-11-29T21:52:55.020Z,101866.81
2022-11-29T21:57:06.652Z,101872.63
2022-11-29T22:01:20.105Z,101883.19
2022-11-29T22:05:31.724Z,101886.50
2022-11-29T22:09:43.347Z,101890.22
2022-11-29T22:14:13.617Z,101891.09
2022-11-29T22:18:27.832Z,101890.03
2022-11-29T22:22:39.433Z,101898.44
2022-11-29T22:26:52.571Z,101894.84
2022-11-29T22:31:12.294Z,101891.69
2022-11-29T22:35:23.958Z,101879.72
2022-11-29T22:39:35.524Z,101882.47
2022-11-29T22:43:47.117Z,101885.53
2022-11-29T22:47:58.717Z,101886.84
2022-11-29T22:52:10.308Z,101894.44
2022-11-29T22:56:27.746Z,101894.34
2022-11-29T23:00:44.029Z,101891.56
2022-11-29T23:04:55.760Z,101911.34
2022-11-29T23:09:16.602Z,101912.56
2022-11-29T23:13:28.440Z,101907.56
2022-11-29T23:17:40.159Z,101905.81
2022-11-29T23:21:51.975Z,101906.00
2022-11-29T23:26:07.348Z,101915.41
2022-11-29T23:30:18.886Z,101905.22
2022-11-29T23:34:30.402Z,101921.78
2022-11-29T23:38:42.267Z,101907.91
2022-11-29T23:42:54.158Z,101920.09
2022-11-29T23:47:05.626Z,101911.06
2022-11-29T23:51:18.613Z,101920.09
2022-11-29T23:55:30.165Z,101936.00
2022-11-29T23:59:41.636Z,101916.13
